Au Sable, Michigan
Current Conditions -  °F | °C
As of 6:14 PM on Friday 28 Nov 2014 (Local Time) from KOSC Reporting Station
Light Snow Light Snow  
Wind Chill: 22°   Ceiling: 2700
Heat Index: 22°   Visibility: 4mi
Dew Point: 19°   Wind: 0mph
Humidity: 89%   Direction: NA
Pressure: 30.12"   Gusts: NA
Location:  44.4539°N, 83.4813°W
Report Text: KOSC 282314Z AUTO 00000KT 4SM -SN SCT018 BKN027 OVC090 M05/M07 A3012 RMK AO2 T10551070
Loading
Personal Weather Stations






























Interactive Weather Map New forecast layout! Learn more

10-Day Weather Forecast

Advertisements
Track Severe Weather on mobile